createdAt,value
2019-01-23T00:00:38.911Z,126.30
2019-01-23T00:03:09.337Z,110.83
2019-01-23T00:05:37.810Z,118.33
2019-01-23T00:08:06.353Z,124.90
2019-01-23T00:10:37.509Z,120.03
2019-01-23T00:13:06.083Z,119.43
2019-01-23T00:15:34.564Z,117.23
2019-01-23T00:18:04.585Z,119.77
2019-01-23T00:20:36.068Z,115.23
2019-01-23T00:23:04.565Z,110.53
2019-01-23T00:25:36.310Z,111.13
2019-01-23T00:28:04.978Z,119.13
2019-01-23T00:30:33.341Z,118.47
2019-01-23T00:33:01.751Z,118.10
2019-01-23T00:35:33.479Z,123.37
2019-01-23T00:38:01.993Z,118.83
2019-01-23T00:40:30.507Z,117.83
2019-01-23T00:42:59.097Z,113.97
2019-01-23T00:45:27.662Z,123.17
2019-01-23T00:47:56.202Z,120.47
2019-01-23T00:50:24.602Z,121.97
2019-01-23T00:52:53.142Z,115.27
2019-01-23T00:55:23.263Z,120.90
2019-01-23T00:57:51.869Z,116.13
2019-01-23T01:00:22.652Z,125.97
2019-01-23T01:02:53.971Z,119.67
2019-01-23T01:05:22.526Z,128.23
2019-01-23T01:07:50.993Z,123.93
2019-01-23T01:10:22.500Z,127.83
2019-01-23T01:12:55.304Z,119.73
2019-01-23T01:15:23.811Z,120.70
2019-01-23T01:17:54.318Z,124.97
2019-01-23T01:20:22.780Z,121.90
2019-01-23T01:22:52.950Z,116.73
2019-01-23T01:25:21.405Z,117.83
2019-01-23T01:27:50.001Z,109.00
2019-01-23T01:30:23.649Z,120.73
2019-01-23T01:32:52.229Z,117.20
2019-01-23T01:35:20.799Z,119.80
2019-01-23T01:37:51.403Z,121.77
2019-01-23T01:40:19.941Z,119.80
2019-01-23T01:42:48.383Z,116.23
2019-01-23T01:45:17.344Z,128.37
2019-01-23T01:47:48.834Z,115.57
2019-01-23T01:50:19.255Z,125.53
2019-01-23T01:52:47.885Z,120.37
2019-01-23T01:55:21.036Z,121.37
2019-01-23T01:57:52.063Z,126.40
2019-01-23T02:00:25.326Z,120.77
2019-01-23T02:02:55.461Z,119.10
2019-01-23T02:05:27.359Z,121.20
2019-01-23T02:07:55.835Z,115.83
2019-01-23T02:10:24.219Z,112.27
2019-01-23T02:12:52.659Z,115.10
2019-01-23T02:15:21.178Z,121.47
2019-01-23T02:17:50.120Z,122.10
2019-01-23T02:20:23.418Z,123.77
2019-01-23T02:22:51.904Z,126.57
2019-01-23T02:25:20.708Z,117.40
2019-01-23T02:27:49.812Z,113.60
2019-01-23T02:30:20.868Z,117.57
2019-01-23T02:32:49.341Z,122.70
2019-01-23T02:35:18.043Z,124.87
2019-01-23T02:37:46.767Z,116.20
2019-01-23T02:40:19.736Z,114.97
2019-01-23T02:42:48.305Z,120.20
2019-01-23T02:45:20.964Z,120.17
2019-01-23T02:47:51.219Z,118.53
2019-01-23T02:50:19.645Z,123.67
2019-01-23T02:52:49.952Z,114.07
2019-01-23T02:55:18.388Z,115.53
2019-01-23T02:57:46.999Z,112.20
2019-01-23T03:00:18.243Z,115.20
2019-01-23T03:02:46.702Z,119.83
2019-01-23T03:05:17.288Z,114.70
2019-01-23T03:07:45.999Z,126.43
2019-01-23T03:10:19.161Z,116.57
2019-01-23T03:12:47.538Z,117.27
2019-01-23T03:15:17.258Z,113.13
2019-01-23T03:17:45.899Z,117.73
2019-01-23T03:20:19.594Z,107.93
2019-01-23T03:22:50.690Z,119.63
2019-01-23T03:25:19.222Z,119.77
2019-01-23T03:27:49.468Z,124.27
2019-01-23T03:30:28.213Z,126.23
2019-01-23T03:33:07.227Z,120.53
2019-01-23T03:38:39.216Z,105.60
2019-01-23T03:41:17.606Z,118.30
2019-01-23T03:43:54.254Z,119.07
2019-01-23T03:46:26.661Z,111.70
2019-01-23T03:49:10.664Z,117.70
2019-01-23T03:51:45.804Z,123.73
2019-01-23T03:54:15.797Z,119.90
2019-01-23T03:56:44.497Z,121.33
2019-01-23T03:59:12.966Z,115.80
2019-01-23T04:01:47.164Z,114.07
2019-01-23T04:04:17.458Z,121.83
2019-01-23T04:06:49.235Z,124.50
2019-01-23T04:09:17.769Z,123.13
2019-01-23T04:11:55.633Z,119.70
2019-01-23T04:14:26.011Z,133.50
2019-01-23T04:16:54.560Z,119.63
2019-01-23T04:19:23.232Z,126.37
2019-01-23T04:21:51.684Z,133.03
2019-01-23T04:24:21.753Z,125.70
2019-01-23T04:26:52.145Z,126.83
2019-01-23T04:29:25.379Z,138.97
2019-01-23T04:31:57.661Z,133.83
2019-01-23T04:34:26.056Z,125.33
2019-01-23T04:36:58.263Z,129.27
2019-01-23T04:39:30.114Z,133.70
2019-01-23T04:42:01.906Z,134.37
2019-01-23T04:44:39.048Z,125.97
2019-01-23T04:47:16.070Z,131.93
2019-01-23T04:49:52.047Z,133.97
2019-01-23T04:52:33.855Z,132.13
2019-01-23T04:55:04.227Z,145.23
2019-01-23T04:57:36.139Z,145.20
2019-01-23T05:00:08.088Z,135.43
2019-01-23T05:02:36.821Z,139.90
2019-01-23T05:05:15.100Z,132.27
2019-01-23T05:07:51.173Z,136.03
2019-01-23T05:10:24.825Z,126.43
2019-01-23T05:12:53.253Z,131.10
2019-01-23T05:15:21.659Z,113.60
2019-01-23T05:17:49.960Z,127.10
2019-01-23T05:20:18.271Z,120.63
2019-01-23T05:22:46.589Z,118.63
2019-01-23T05:25:14.898Z,119.87
2019-01-23T05:27:43.233Z,108.17
2019-01-23T05:30:15.315Z,119.00
2019-01-23T05:32:43.717Z,116.33
2019-01-23T05:35:12.118Z,109.67
2019-01-23T05:37:40.390Z,114.00
2019-01-23T05:40:09.246Z,111.23
2019-01-23T05:42:37.685Z,109.43
2019-01-23T05:45:08.415Z,111.57
2019-01-23T05:47:36.728Z,120.27
2019-01-23T05:50:08.326Z,108.23
2019-01-23T05:52:36.864Z,123.20
2019-01-23T05:55:07.842Z,113.73
2019-01-23T05:57:37.839Z,108.80
2019-01-23T06:00:12.074Z,107.10
2019-01-23T06:02:40.505Z,116.30
2019-01-23T06:05:14.867Z,120.03
2019-01-23T06:07:43.462Z,112.03
2019-01-23T06:10:12.017Z,119.57
2019-01-23T06:12:40.530Z,120.30
2019-01-23T06:15:17.228Z,114.23
2019-01-23T06:17:45.627Z,110.63
2019-01-23T06:20:19.334Z,115.87
2019-01-23T06:22:47.823Z,112.97
2019-01-23T06:25:16.168Z,133.63
2019-01-23T06:27:44.657Z,122.17
2019-01-23T06:30:17.966Z,130.87
2019-01-23T06:32:46.562Z,134.40
2019-01-23T06:35:15.047Z,126.60
2019-01-23T06:37:43.494Z,135.07
2019-01-23T06:40:13.472Z,126.87
2019-01-23T06:42:41.843Z,132.97
2019-01-23T06:45:17.631Z,137.30
2019-01-23T06:47:46.617Z,143.40
2019-01-23T06:50:18.436Z,138.10
2019-01-23T06:52:46.719Z,130.30
2019-01-23T06:55:16.681Z,131.87
2019-01-23T06:57:44.981Z,124.83
2019-01-23T07:00:21.966Z,124.63
2019-01-23T07:02:56.049Z,133.20
2019-01-23T07:05:24.384Z,130.87
2019-01-23T07:07:52.785Z,132.57
2019-01-23T07:10:22.996Z,129.23
2019-01-23T07:12:51.398Z,145.33
2019-01-23T07:15:19.988Z,130.70
2019-01-23T07:17:48.363Z,129.40
2019-01-23T07:20:21.988Z,130.60
2019-01-23T07:22:50.249Z,123.10
2019-01-23T07:25:18.610Z,125.53
2019-01-23T07:27:46.883Z,128.20
2019-01-23T07:30:24.585Z,125.03
2019-01-23T07:32:52.924Z,129.50
2019-01-23T07:35:21.192Z,133.43
2019-01-23T07:37:49.456Z,119.80
2019-01-23T07:40:17.735Z,131.70
2019-01-23T07:42:46.016Z,130.47
2019-01-23T07:45:17.122Z,120.97
2019-01-23T07:47:45.393Z,118.77
2019-01-23T07:50:13.928Z,126.47
2019-01-23T07:52:42.204Z,119.13
2019-01-23T07:55:16.357Z,120.03
2019-01-23T07:57:44.617Z,126.77
2019-01-23T08:00:17.953Z,122.63
2019-01-23T08:02:46.213Z,120.90
2019-01-23T08:05:20.270Z,109.00
2019-01-23T08:07:48.614Z,121.60
2019-01-23T08:10:18.321Z,120.90
2019-01-23T08:12:46.833Z,138.10
2019-01-23T08:15:20.715Z,122.53
2019-01-23T08:17:48.980Z,133.50
2019-01-23T08:20:22.059Z,128.43
2019-01-23T08:22:50.330Z,139.40
2019-01-23T08:25:18.619Z,133.47
2019-01-23T08:27:46.889Z,139.10
2019-01-23T08:30:17.395Z,132.67
2019-01-23T08:32:45.739Z,123.47
2019-01-23T08:35:14.067Z,136.07
2019-01-23T08:37:42.334Z,137.50
2019-01-23T08:40:13.309Z,138.77
2019-01-23T08:42:41.575Z,160.27
2019-01-23T08:45:11.570Z,149.67
2019-01-23T08:47:39.856Z,153.80
2019-01-23T08:50:11.375Z,152.63
2019-01-23T08:52:39.676Z,145.87
2019-01-23T08:55:07.942Z,153.93
2019-01-23T08:57:36.251Z,148.97
2019-01-23T09:00:07.786Z,159.60
2019-01-23T09:02:36.191Z,153.63
2019-01-23T09:05:06.396Z,168.37
2019-01-23T09:07:34.858Z,160.53
2019-01-23T09:10:03.353Z,160.40
2019-01-23T09:12:32.933Z,160.10
2019-01-23T09:15:01.290Z,167.70
2019-01-23T09:17:29.759Z,168.20
2019-01-23T09:19:58.103Z,175.00
2019-01-23T09:22:26.441Z,161.73
2019-01-23T09:24:54.715Z,179.93
2019-01-23T09:27:23.068Z,163.90
2019-01-23T09:29:51.326Z,178.73
2019-01-23T09:32:42.413Z,168.40
2019-01-23T09:35:19.975Z,181.03
2019-01-23T09:38:12.666Z,178.07
2019-01-23T09:40:49.013Z,174.43
2019-01-23T09:43:26.215Z,188.63
2019-01-23T09:46:09.856Z,175.93
2019-01-23T09:48:47.445Z,178.77
2019-01-23T09:51:30.471Z,181.87
2019-01-23T09:54:04.919Z,157.63
2019-01-23T09:56:33.298Z,170.07
2019-01-23T09:59:02.592Z,174.13
2019-01-23T10:01:31.265Z,168.67
2019-01-23T10:03:59.890Z,165.03
2019-01-23T10:06:28.497Z,154.03
2019-01-23T10:08:56.827Z,152.87
2019-01-23T10:11:25.539Z,160.37
2019-01-23T10:13:54.145Z,155.30
2019-01-23T10:16:22.622Z,160.30
2019-01-23T10:18:55.973Z,158.33
2019-01-23T10:21:21.357Z,168.43
2019-01-23T10:23:51.512Z,156.33
2019-01-23T10:26:20.105Z,153.20
2019-01-23T10:28:48.453Z,134.23
2019-01-23T10:31:17.116Z,149.67
2019-01-23T10:33:45.379Z,150.97
2019-01-23T10:36:13.697Z,143.67
2019-01-23T10:38:42.313Z,150.97
2019-01-23T10:41:11.034Z,136.10
2019-01-23T10:43:39.721Z,144.80
2019-01-23T10:46:08.111Z,130.00
2019-01-23T10:48:38.121Z,133.73
2019-01-23T10:51:06.579Z,133.67
2019-01-23T10:53:34.902Z,133.40
2019-01-23T10:56:03.294Z,129.50
2019-01-23T10:58:31.648Z,132.83
2019-01-23T11:00:59.951Z,122.80
2019-01-23T11:03:28.301Z,119.70
2019-01-23T11:05:56.613Z,123.90
2019-01-23T11:08:24.926Z,123.30
2019-01-23T11:10:53.233Z,119.73
2019-01-23T11:13:21.514Z,115.40
2019-01-23T11:15:49.977Z,122.60
2019-01-23T11:18:18.208Z,115.13
2019-01-23T11:20:46.514Z,115.73
2019-01-23T11:23:15.912Z,111.33
2019-01-23T11:25:44.173Z,101.77
2019-01-23T11:28:12.588Z,106.50
2019-01-23T11:30:40.964Z,102.00
2019-01-23T11:33:09.242Z,102.57
2019-01-23T11:35:37.563Z,100.30
2019-01-23T11:38:05.962Z,106.03
2019-01-23T11:40:34.263Z,105.37
2019-01-23T11:43:02.690Z,100.93
2019-01-23T11:45:30.947Z,103.93
2019-01-23T11:48:07.057Z,99.20
2019-01-23T11:50:35.475Z,103.37
2019-01-23T11:53:04.189Z,89.70
2019-01-23T11:55:32.772Z,95.07
2019-01-23T11:58:01.368Z,99.00
2019-01-23T12:00:31.445Z,95.97
2019-01-23T12:03:03.846Z,92.63
2019-01-23T12:05:36.750Z,86.13
2019-01-23T12:08:05.292Z,94.67
2019-01-23T12:10:33.789Z,86.93
2019-01-23T12:13:07.538Z,102.23
2019-01-23T12:15:40.944Z,90.90
2019-01-23T12:18:14.239Z,99.67
2019-01-23T12:20:40.078Z,98.70
2019-01-23T12:23:12.556Z,94.80
2019-01-23T12:25:44.234Z,93.90
2019-01-23T12:28:12.779Z,96.07
2019-01-23T12:30:41.182Z,93.67
2019-01-23T12:33:12.520Z,97.07
2019-01-23T12:35:41.026Z,98.90
2019-01-23T12:38:11.231Z,100.07
2019-01-23T12:40:42.613Z,95.93
2019-01-23T12:43:13.056Z,91.47
2019-01-23T12:45:45.939Z,108.33
2019-01-23T12:48:16.093Z,99.63
2019-01-23T12:50:44.831Z,100.33
2019-01-23T12:53:33.797Z,98.50
2019-01-23T12:56:02.356Z,100.70
2019-01-23T12:58:34.217Z,98.07
2019-01-23T13:01:02.457Z,102.13
2019-01-23T13:03:30.748Z,100.90
2019-01-23T13:05:59.011Z,96.13
2019-01-23T13:08:27.281Z,97.00
2019-01-23T13:10:55.548Z,95.47
2019-01-23T13:13:23.850Z,98.30
2019-01-23T13:15:52.116Z,95.47
2019-01-23T13:18:20.380Z,98.93
2019-01-23T13:20:48.647Z,89.37
2019-01-23T13:23:19.846Z,104.47
2019-01-23T13:25:46.937Z,97.73
2019-01-23T13:28:15.272Z,94.23
2019-01-23T13:30:43.539Z,88.30
2019-01-23T13:33:11.810Z,91.33
2019-01-23T13:35:40.110Z,93.97
2019-01-23T13:38:11.288Z,100.10
2019-01-23T13:40:39.555Z,93.60
2019-01-23T13:43:08.023Z,88.00
2019-01-23T13:45:36.327Z,91.20
2019-01-23T13:48:05.459Z,92.83
2019-01-23T13:50:33.726Z,92.70
2019-01-23T13:53:02.020Z,95.50
2019-01-23T13:55:30.294Z,90.40
2019-01-23T13:57:58.556Z,93.13
2019-01-23T14:00:32.617Z,89.50
2019-01-23T14:03:00.888Z,93.07
2019-01-23T14:05:29.240Z,90.90
2019-01-23T14:07:57.505Z,95.53
2019-01-23T14:10:25.807Z,98.63
2019-01-23T14:12:54.291Z,95.83
2019-01-23T14:15:31.106Z,93.27
2019-01-23T14:17:59.405Z,104.23
2019-01-23T14:20:27.673Z,104.57
2019-01-23T14:22:56.021Z,93.07
2019-01-23T14:25:24.331Z,95.97
2019-01-23T14:27:52.594Z,90.00
2019-01-23T14:30:31.882Z,88.87
2019-01-23T14:33:00.173Z,92.40
2019-01-23T14:35:29.485Z,96.70
2019-01-23T14:38:01.248Z,99.83
2019-01-23T14:40:31.816Z,95.03
2019-01-23T14:43:00.101Z,101.60
2019-01-23T14:45:28.751Z,88.90
2019-01-23T14:47:59.790Z,96.53
2019-01-23T14:50:28.223Z,91.70
2019-01-23T14:52:56.598Z,94.43
2019-01-23T14:55:25.056Z,99.37
2019-01-23T14:57:53.470Z,92.67
2019-01-23T15:00:24.729Z,93.27
2019-01-23T15:02:53.190Z,95.77
2019-01-23T15:05:21.722Z,99.10
2019-01-23T15:07:50.005Z,105.83
2019-01-23T15:10:32.161Z,93.20
2019-01-23T15:13:00.557Z,93.33
2019-01-23T15:15:28.984Z,95.87
2019-01-23T15:17:57.383Z,101.30
2019-01-23T15:20:31.841Z,97.30
2019-01-23T15:23:00.170Z,88.07
2019-01-23T15:25:29.496Z,95.43
2019-01-23T15:27:57.858Z,93.73
2019-01-23T15:30:26.420Z,92.23
2019-01-23T15:32:54.692Z,92.60
2019-01-23T15:35:24.733Z,100.30
2019-01-23T15:37:53.273Z,99.53
2019-01-23T15:40:26.376Z,97.37
2019-01-23T15:42:54.792Z,99.67
2019-01-23T15:45:23.163Z,96.33
2019-01-23T15:47:51.634Z,90.47
2019-01-23T15:50:22.074Z,89.80
2019-01-23T15:52:50.518Z,99.27
2019-01-23T15:55:23.343Z,88.30
2019-01-23T15:57:51.770Z,89.30
2019-01-23T16:00:24.834Z,95.70
2019-01-23T16:02:53.245Z,97.50
2019-01-23T16:05:21.697Z,96.23
2019-01-23T16:07:50.073Z,91.77
2019-01-23T16:10:23.393Z,93.77
2019-01-23T16:12:51.755Z,95.93
2019-01-23T16:15:22.171Z,98.13
2019-01-23T16:17:52.101Z,94.60
2019-01-23T16:20:20.583Z,102.23
2019-01-23T16:22:49.232Z,96.53
2019-01-23T16:25:18.230Z,107.33
2019-01-23T16:27:46.554Z,101.23
2019-01-23T16:30:33.033Z,98.00
2019-01-23T16:33:01.487Z,108.43
2019-01-23T16:35:29.947Z,96.37
2019-01-23T16:37:58.375Z,101.17
2019-01-23T16:40:28.425Z,102.53
2019-01-23T16:42:56.804Z,98.83
2019-01-23T16:45:25.210Z,107.07
2019-01-23T16:47:53.613Z,105.17
2019-01-23T16:50:24.980Z,105.63
2019-01-23T16:52:54.065Z,109.27
2019-01-23T16:55:22.797Z,120.23
2019-01-23T16:57:51.113Z,118.00
2019-01-23T17:00:22.003Z,112.50
2019-01-23T17:02:50.289Z,112.10
2019-01-23T17:05:21.110Z,113.33
2019-01-23T17:07:49.569Z,114.20
2019-01-23T17:10:20.860Z,110.07
2019-01-23T17:12:49.167Z,106.10
2019-01-23T17:15:17.473Z,110.33
2019-01-23T17:17:45.863Z,105.70
2019-01-23T17:20:17.428Z,110.23
2019-01-23T17:22:55.884Z,117.23
2019-01-23T17:25:29.105Z,113.63
2019-01-23T17:28:01.864Z,113.80
2019-01-23T17:30:30.467Z,118.03
2019-01-23T17:32:59.207Z,110.67
2019-01-23T17:35:36.632Z,122.03
2019-01-23T17:38:08.674Z,117.30
2019-01-23T17:40:45.929Z,111.60
2019-01-23T17:43:18.158Z,123.23
2019-01-23T17:45:51.281Z,121.10
2019-01-23T17:48:26.130Z,114.50
2019-01-23T17:53:50.305Z,122.73
2019-01-23T17:56:20.622Z,113.77
2019-01-23T17:58:56.947Z,120.07
2019-01-23T18:01:25.193Z,122.70
2019-01-23T18:03:53.467Z,132.03
2019-01-23T18:06:21.744Z,123.00
2019-01-23T18:08:51.569Z,121.87
2019-01-23T18:11:19.860Z,122.20
2019-01-23T18:13:48.220Z,119.30
2019-01-23T18:16:16.494Z,120.57
2019-01-23T18:18:44.765Z,126.70
2019-01-23T18:21:13.035Z,127.40
2019-01-23T18:23:41.300Z,116.67
2019-01-23T18:26:09.575Z,122.33
2019-01-23T18:28:37.882Z,124.10
2019-01-23T18:31:18.087Z,123.37
2019-01-23T18:34:04.822Z,117.17
2019-01-23T18:37:06.617Z,116.00
2019-01-23T18:39:53.104Z,114.10
2019-01-23T18:42:49.936Z,115.73
2019-01-23T18:45:21.469Z,124.73
2019-01-23T18:47:55.719Z,118.93
2019-01-23T18:50:42.115Z,119.33
2019-01-23T18:53:10.582Z,124.50
2019-01-23T18:55:38.869Z,125.17
2019-01-23T18:58:07.173Z,108.17
2019-01-23T19:00:35.516Z,132.00
2019-01-23T19:03:07.223Z,122.47
2019-01-23T19:05:33.874Z,116.57
2019-01-23T19:08:02.134Z,110.43
2019-01-23T19:10:30.426Z,111.90
2019-01-23T19:12:58.704Z,114.23
2019-01-23T19:15:26.971Z,114.57
2019-01-23T19:17:55.286Z,112.60
2019-01-23T19:20:23.562Z,114.97
2019-01-23T19:22:51.836Z,118.77
2019-01-23T19:25:20.109Z,116.20
2019-01-23T19:27:48.380Z,128.63
2019-01-23T19:30:21.448Z,123.70
2019-01-23T19:32:49.715Z,112.57
2019-01-23T19:35:17.985Z,103.53
2019-01-23T19:37:46.393Z,110.77
2019-01-23T19:40:14.796Z,113.40
2019-01-23T19:42:43.092Z,107.93
2019-01-23T19:45:16.996Z,124.57
2019-01-23T19:47:45.353Z,114.13
2019-01-23T19:50:14.358Z,122.23
2019-01-23T19:52:42.649Z,120.23
2019-01-23T19:55:16.140Z,117.73
2019-01-23T19:57:44.414Z,110.60
2019-01-23T20:00:18.820Z,124.90
2019-01-23T20:02:47.090Z,114.70
2019-01-23T20:05:18.410Z,120.43
2019-01-23T20:07:46.675Z,118.83
2019-01-23T20:10:22.914Z,122.17
2019-01-23T20:12:51.874Z,122.20
2019-01-23T20:15:25.164Z,127.70
2019-01-23T20:17:58.723Z,140.13
2019-01-23T20:20:27.770Z,128.60
2019-01-23T20:22:58.211Z,139.70
2019-01-23T20:25:27.791Z,140.17
2019-01-23T20:27:57.060Z,136.43
2019-01-23T20:30:29.394Z,126.00
2019-01-23T20:32:58.388Z,136.63
2019-01-23T20:35:27.664Z,145.40
2019-01-23T20:37:56.408Z,129.93
2019-01-23T20:40:24.918Z,141.70
2019-01-23T20:42:53.416Z,140.00
2019-01-23T20:45:21.817Z,130.70
2019-01-23T20:47:50.380Z,127.87
2019-01-23T20:50:24.691Z,129.87
2019-01-23T20:52:53.314Z,134.77
2019-01-23T20:55:21.712Z,126.50
2019-01-23T20:57:50.576Z,128.93
2019-01-23T21:00:21.800Z,124.93
2019-01-23T21:02:50.181Z,130.67
2019-01-23T21:05:18.581Z,125.80
2019-01-23T21:07:47.005Z,118.20
2019-01-23T21:10:20.821Z,122.10
2019-01-23T21:12:49.412Z,114.57
2019-01-23T21:15:22.855Z,119.43
2019-01-23T21:17:51.346Z,120.10
2019-01-23T21:20:19.700Z,120.67
2019-01-23T21:22:48.141Z,111.27
2019-01-23T21:25:16.663Z,113.07
2019-01-23T21:27:45.778Z,117.73
2019-01-23T21:30:22.640Z,112.63
2019-01-23T21:32:50.985Z,122.03
2019-01-23T21:35:20.263Z,119.70
2019-01-23T21:37:48.750Z,126.00
2019-01-23T21:40:25.749Z,113.53
2019-01-23T21:42:54.187Z,125.80
2019-01-23T21:45:22.643Z,124.07
2019-01-23T21:47:51.658Z,128.37
2019-01-23T21:50:22.075Z,127.90
2019-01-23T21:52:50.490Z,127.60
2019-01-23T21:55:21.125Z,133.20
2019-01-23T21:57:49.582Z,135.53
2019-01-23T22:00:33.005Z,122.00
2019-01-23T22:03:02.754Z,127.20
2019-01-23T22:05:31.141Z,129.27
2019-01-23T22:07:59.559Z,121.67
2019-01-23T22:10:28.087Z,128.83
2019-01-23T22:12:56.477Z,119.37
2019-01-23T22:15:29.607Z,121.20
2019-01-23T22:17:57.908Z,118.70
2019-01-23T22:20:26.383Z,121.43
2019-01-23T22:22:54.657Z,123.43
2019-01-23T22:25:24.581Z,114.10
2019-01-23T22:27:52.966Z,110.43
2019-01-23T22:30:30.281Z,120.07
2019-01-23T22:32:58.598Z,119.73
2019-01-23T22:35:28.519Z,111.10
2019-01-23T22:37:56.860Z,116.10
2019-01-23T22:40:25.208Z,123.90
2019-01-23T22:42:53.554Z,126.17
2019-01-23T22:45:22.031Z,114.43
2019-01-23T22:47:50.292Z,123.40
2019-01-23T22:50:23.538Z,116.33
2019-01-23T22:52:51.882Z,112.83
2019-01-23T22:55:20.199Z,118.83
2019-01-23T22:57:48.501Z,114.90
2019-01-23T23:00:25.834Z,109.13
2019-01-23T23:02:54.149Z,126.77
2019-01-23T23:05:22.471Z,111.77
2019-01-23T23:07:50.761Z,111.97
2019-01-23T23:10:19.033Z,112.07
2019-01-23T23:12:47.327Z,113.40
2019-01-23T23:15:15.627Z,114.87
2019-01-23T23:17:43.901Z,116.83
2019-01-23T23:20:13.208Z,104.30
2019-01-23T23:22:41.501Z,107.57
2019-01-23T23:25:10.171Z,108.53
2019-01-23T23:27:39.450Z,109.83
2019-01-23T23:30:16.510Z,109.80
2019-01-23T23:32:44.778Z,108.67
2019-01-23T23:35:13.143Z,111.90
2019-01-23T23:37:41.426Z,112.40
2019-01-23T23:40:14.477Z,112.10
2019-01-23T23:42:42.927Z,118.30
2019-01-23T23:45:15.921Z,112.93
2019-01-23T23:47:44.410Z,116.00
2019-01-23T23:50:14.461Z,120.63
2019-01-23T23:52:42.814Z,116.73
2019-01-23T23:55:12.531Z,112.33
2019-01-23T23:57:40.844Z,119.23
